createdAt,value
2024-02-16T00:02:08.354Z,9.33
2024-02-16T00:04:36.694Z,9.10
2024-02-16T00:07:05.362Z,8.30
2024-02-16T00:09:34.546Z,9.23
2024-02-16T00:12:04.901Z,8.30
2024-02-16T00:14:33.436Z,9.33
2024-02-16T00:17:02.285Z,8.60
2024-02-16T00:19:30.623Z,9.10
2024-02-16T00:21:59.131Z,6.73
2024-02-16T00:24:27.605Z,9.60
2024-02-16T00:26:56.243Z,10.73
2024-02-16T00:29:26.319Z,9.53
2024-02-16T00:31:54.950Z,9.23
2024-02-16T00:34:23.973Z,7.33
2024-02-16T00:36:53.253Z,8.57
2024-02-16T00:39:23.010Z,7.57
2024-02-16T00:41:52.094Z,8.13
2024-02-16T00:44:20.944Z,9.23
2024-02-16T00:46:50.634Z,9.27
2024-02-16T00:49:19.303Z,6.77
2024-02-16T00:51:48.333Z,8.30
2024-02-16T00:54:17.138Z,6.13
2024-02-16T00:56:46.120Z,8.00
2024-02-16T00:59:14.588Z,8.67
2024-02-16T01:01:43.091Z,9.33
2024-02-16T01:04:12.961Z,6.63
2024-02-16T01:06:41.389Z,9.80
2024-02-16T01:09:10.066Z,9.20
2024-02-16T01:11:38.515Z,7.70
2024-02-16T01:14:06.935Z,10.80
2024-02-16T01:16:36.781Z,10.20
2024-02-16T01:19:07.801Z,9.80
2024-02-16T01:21:37.776Z,10.03
2024-02-16T01:24:06.884Z,6.83
2024-02-16T01:26:35.330Z,11.53
2024-02-16T01:29:03.907Z,7.40
2024-02-16T01:31:33.249Z,8.60
2024-02-16T01:34:02.482Z,7.90
2024-02-16T01:36:31.115Z,8.90
2024-02-16T01:39:01.042Z,9.53
2024-02-16T01:41:29.806Z,10.27
2024-02-16T01:43:58.392Z,9.43
2024-02-16T01:46:27.489Z,9.47
2024-02-16T01:48:56.586Z,8.03
2024-02-16T01:51:27.257Z,11.10
2024-02-16T01:53:57.013Z,10.23
2024-02-16T01:56:27.869Z,10.50
2024-02-16T01:58:56.209Z,8.40
2024-02-16T02:01:24.791Z,8.50
2024-02-16T02:03:53.430Z,10.93
2024-02-16T02:06:22.764Z,7.87
2024-02-16T02:08:51.408Z,8.70
2024-02-16T02:11:19.935Z,8.97
2024-02-16T02:13:49.653Z,9.30
2024-02-16T02:16:19.392Z,10.73
2024-02-16T02:18:48.335Z,7.33
2024-02-16T02:21:19.196Z,9.20
2024-02-16T02:23:49.148Z,9.27
2024-02-16T02:26:19.011Z,8.03
2024-02-16T02:28:47.598Z,11.03
2024-02-16T02:31:16.291Z,11.17
2024-02-16T02:33:44.813Z,10.90
2024-02-16T02:36:13.357Z,9.57
2024-02-16T02:38:42.758Z,10.70
2024-02-16T02:41:12.911Z,8.63
2024-02-16T02:43:41.413Z,7.93
2024-02-16T02:46:10.052Z,7.93
2024-02-16T02:48:38.631Z,12.13
2024-02-16T02:51:07.242Z,7.83
2024-02-16T02:53:35.592Z,6.03
2024-02-16T02:56:04.033Z,11.07
2024-02-16T02:58:33.887Z,7.77
2024-02-16T03:01:02.868Z,7.57
2024-02-16T03:03:31.757Z,8.23
2024-02-16T03:06:00.233Z,8.97
2024-02-16T03:08:28.818Z,8.90
2024-02-16T03:10:57.201Z,7.47
2024-02-16T03:13:25.459Z,6.80
2024-02-16T03:15:55.393Z,7.27
2024-02-16T03:18:24.376Z,9.90
2024-02-16T03:20:52.972Z,6.40
2024-02-16T03:23:21.429Z,6.50
2024-02-16T03:25:49.694Z,9.13
2024-02-16T03:28:18.638Z,7.47
2024-02-16T03:30:47.794Z,8.80
2024-02-16T03:33:17.777Z,7.97
2024-02-16T03:35:46.287Z,5.43
2024-02-16T03:38:14.903Z,9.73
2024-02-16T03:40:43.384Z,6.80
2024-02-16T03:43:13.149Z,7.03
2024-02-16T03:45:41.654Z,6.63
2024-02-16T03:48:10.426Z,9.07
2024-02-16T03:50:40.467Z,7.77
2024-02-16T03:53:08.751Z,8.37
2024-02-16T03:55:37.787Z,6.57
2024-02-16T03:58:06.757Z,8.70
2024-02-16T04:00:35.780Z,11.20
2024-02-16T04:03:05.725Z,7.37
2024-02-16T04:05:36.077Z,9.17
2024-02-16T04:08:07.538Z,7.33
2024-02-16T04:10:36.812Z,7.47
2024-02-16T04:13:05.882Z,7.90
2024-02-16T04:15:34.332Z,8.40
2024-02-16T04:18:03.135Z,8.50
2024-02-16T04:20:31.701Z,10.27
2024-02-16T04:23:00.084Z,7.13
2024-02-16T04:25:29.891Z,6.80
2024-02-16T04:27:58.354Z,8.63
2024-02-16T04:30:26.732Z,8.83
2024-02-16T04:32:57.158Z,8.40
2024-02-16T04:35:25.646Z,8.17
2024-02-16T04:37:54.028Z,9.37
2024-02-16T04:40:22.419Z,8.53
2024-02-16T04:42:52.102Z,7.27
2024-02-16T04:45:21.374Z,7.47
2024-02-16T04:47:50.165Z,6.53
2024-02-16T04:50:18.797Z,9.53
2024-02-16T04:52:47.389Z,10.83
2024-02-16T04:55:16.240Z,8.10
2024-02-16T04:57:44.506Z,8.50
2024-02-16T05:00:16.496Z,9.13
2024-02-16T05:02:44.954Z,8.73
2024-02-16T05:05:13.578Z,9.53
2024-02-16T05:07:42.366Z,6.67
2024-02-16T05:10:12.501Z,11.13
2024-02-16T05:12:42.614Z,8.23
2024-02-16T05:15:11.825Z,7.90
2024-02-16T05:17:42.134Z,8.23
2024-02-16T05:20:16.477Z,8.33
2024-02-16T05:22:47.724Z,5.73
2024-02-16T05:25:17.168Z,8.97
2024-02-16T05:27:46.189Z,8.17
2024-02-16T05:30:16.906Z,7.07
2024-02-16T05:32:54.419Z,9.37
2024-02-16T05:35:22.860Z,7.80
2024-02-16T05:37:52.762Z,11.50
2024-02-16T05:40:23.317Z,8.23
2024-02-16T05:42:53.082Z,8.43
2024-02-16T05:45:22.539Z,8.50
2024-02-16T05:47:53.985Z,9.07
2024-02-16T05:50:24.728Z,8.57
2024-02-16T05:52:53.305Z,7.57
2024-02-16T05:55:21.751Z,8.87
2024-02-16T05:57:50.155Z,7.57
2024-02-16T06:00:22.515Z,8.87
2024-02-16T06:02:53.386Z,8.93
2024-02-16T06:05:22.407Z,9.63
2024-02-16T06:07:51.003Z,9.27
2024-02-16T06:10:19.651Z,11.37
2024-02-16T06:12:48.808Z,7.70
2024-02-16T06:15:18.001Z,9.43
2024-02-16T06:17:46.438Z,7.50
2024-02-16T06:20:18.932Z,8.03
2024-02-16T06:22:49.420Z,8.20
2024-02-16T06:25:18.583Z,8.53
2024-02-16T06:27:47.589Z,7.53
2024-02-16T06:30:17.339Z,8.07
2024-02-16T06:32:45.969Z,8.03
2024-02-16T06:35:16.360Z,7.97
2024-02-16T06:37:44.730Z,9.87
2024-02-16T06:40:14.419Z,10.23
2024-02-16T06:42:43.046Z,8.83
2024-02-16T06:45:12.735Z,8.10
2024-02-16T06:47:41.838Z,8.10
2024-02-16T06:50:11.484Z,9.23
2024-02-16T06:52:41.907Z,7.27
2024-02-16T06:55:11.144Z,7.53
2024-02-16T06:57:39.881Z,7.10
2024-02-16T07:00:11.620Z,10.03
2024-02-16T07:02:40.254Z,6.53
2024-02-16T07:05:09.783Z,7.67
2024-02-16T07:07:38.275Z,8.60
2024-02-16T07:10:14.938Z,9.30
2024-02-16T07:12:44.073Z,9.47
2024-02-16T07:15:13.716Z,7.20
2024-02-16T07:17:42.617Z,7.30
2024-02-16T07:20:12.180Z,9.80
2024-02-16T07:22:40.694Z,6.13
2024-02-16T07:25:13.568Z,6.80
2024-02-16T07:27:43.032Z,7.73
2024-02-16T07:30:17.023Z,7.77
2024-02-16T07:32:51.766Z,7.40
2024-02-16T07:35:22.676Z,7.20
2024-02-16T07:37:53.085Z,7.67
2024-02-16T07:40:23.297Z,8.03
2024-02-16T07:42:51.703Z,10.13
2024-02-16T07:45:20.198Z,6.90
2024-02-16T07:47:49.185Z,8.37
2024-02-16T07:50:21.413Z,8.63
2024-02-16T07:52:50.933Z,7.77
2024-02-16T07:55:19.553Z,6.70
2024-02-16T07:57:49.949Z,7.33
2024-02-16T08:00:19.524Z,8.30
2024-02-16T08:02:48.462Z,7.40
2024-02-16T08:05:20.859Z,8.60
2024-02-16T08:07:49.810Z,6.93
2024-02-16T08:10:22.040Z,6.60
2024-02-16T08:12:51.998Z,8.40
2024-02-16T08:15:25.026Z,7.60
2024-02-16T08:17:54.942Z,5.37
2024-02-16T08:20:24.067Z,6.67
2024-02-16T08:22:52.629Z,6.57
2024-02-16T08:25:21.410Z,6.27
2024-02-16T08:27:52.072Z,6.03
2024-02-16T08:30:20.770Z,7.00
2024-02-16T08:32:49.463Z,5.73
2024-02-16T08:35:20.114Z,6.90
2024-02-16T08:37:49.010Z,7.63
2024-02-16T08:40:17.653Z,6.17
2024-02-16T08:42:46.325Z,6.37
2024-02-16T08:45:18.792Z,6.93
2024-02-16T08:47:51.507Z,8.00
2024-02-16T08:50:21.541Z,7.33
2024-02-16T08:52:49.879Z,8.77
2024-02-16T08:55:18.724Z,6.90
2024-02-16T08:57:47.877Z,5.57
2024-02-16T09:00:19.220Z,7.13
2024-02-16T09:02:48.586Z,6.33
2024-02-16T09:05:17.336Z,8.17
2024-02-16T09:07:46.220Z,6.13
2024-02-16T09:10:15.751Z,6.73
2024-02-16T09:12:44.584Z,6.13
2024-02-16T09:15:14.164Z,6.63
2024-02-16T09:17:44.739Z,8.80
2024-02-16T09:20:14.419Z,7.10
2024-02-16T09:22:47.241Z,6.17
2024-02-16T09:25:16.515Z,7.73
2024-02-16T09:27:46.738Z,8.90
2024-02-16T09:30:16.962Z,5.93
2024-02-16T09:32:47.262Z,7.03
2024-02-16T09:35:15.766Z,6.37
2024-02-16T09:37:44.359Z,8.33
2024-02-16T09:40:15.259Z,7.97
2024-02-16T09:42:43.928Z,6.97
2024-02-16T09:45:15.308Z,9.70
2024-02-16T09:47:54.387Z,9.77
2024-02-16T09:50:29.701Z,8.23
2024-02-16T09:52:59.338Z,8.50
2024-02-16T09:55:27.905Z,9.17
2024-02-16T09:58:02.199Z,10.10
2024-02-16T10:00:30.777Z,7.83
2024-02-16T10:03:01.088Z,7.83
2024-02-16T10:05:31.979Z,7.93
2024-02-16T10:08:01.153Z,8.73
2024-02-16T10:10:32.179Z,9.77
2024-02-16T10:13:05.195Z,9.87
2024-02-16T10:15:34.157Z,8.60
2024-02-16T10:18:05.693Z,8.17
2024-02-16T10:20:36.681Z,9.30
2024-02-16T10:23:09.512Z,8.30
2024-02-16T10:25:39.438Z,9.67
2024-02-16T10:28:11.402Z,8.07
2024-02-16T10:30:42.166Z,10.17
2024-02-16T10:33:13.667Z,9.87
2024-02-16T10:35:43.328Z,7.90
2024-02-16T10:38:13.311Z,9.17
2024-02-16T10:40:47.396Z,9.27
2024-02-16T10:43:17.395Z,8.77
2024-02-16T10:45:46.602Z,9.63
2024-02-16T10:48:16.851Z,8.93
2024-02-16T10:50:46.727Z,8.90
2024-02-16T10:53:22.379Z,10.47
2024-02-16T10:55:51.822Z,8.33
2024-02-16T10:58:21.077Z,9.50
2024-02-16T11:00:53.870Z,10.03
2024-02-16T11:03:28.549Z,8.40
2024-02-16T11:05:59.832Z,11.20
2024-02-16T11:08:29.799Z,8.30
2024-02-16T11:11:00.675Z,8.97
2024-02-16T11:13:30.976Z,10.20
2024-02-16T11:16:00.927Z,8.83
2024-02-16T11:18:32.253Z,11.23
2024-02-16T11:21:03.638Z,13.00
2024-02-16T11:23:33.547Z,10.73
2024-02-16T11:26:07.518Z,11.80
2024-02-16T11:28:37.283Z,12.57
2024-02-16T11:31:06.447Z,13.07
2024-02-16T11:33:36.846Z,15.27
2024-02-16T11:36:09.639Z,11.93
2024-02-16T11:38:38.323Z,12.30
2024-02-16T11:41:09.219Z,15.43
2024-02-16T11:43:37.993Z,14.03
2024-02-16T11:46:17.514Z,12.93
2024-02-16T11:48:49.524Z,16.10
2024-02-16T11:51:19.376Z,16.17
2024-02-16T11:53:57.669Z,17.83
2024-02-16T11:56:26.631Z,19.87
2024-02-16T11:58:55.758Z,17.23
2024-02-16T12:01:24.196Z,31.53
2024-02-16T12:03:53.992Z,30.80
2024-02-16T12:06:24.002Z,25.13
2024-02-16T12:08:54.882Z,27.23
2024-02-16T12:11:24.218Z,24.80
2024-02-16T12:13:52.638Z,23.17
2024-02-16T12:16:22.449Z,21.60
2024-02-16T12:18:51.135Z,19.90
2024-02-16T12:21:21.995Z,20.37
2024-02-16T12:23:51.019Z,17.60
2024-02-16T12:26:19.714Z,20.77
2024-02-16T12:28:48.953Z,16.77
2024-02-16T12:31:21.833Z,16.23
2024-02-16T12:33:50.620Z,14.10
2024-02-16T12:36:21.268Z,15.30
2024-02-16T12:38:49.746Z,15.07
2024-02-16T12:41:18.971Z,16.87
2024-02-16T12:43:47.632Z,17.63
2024-02-16T12:46:16.472Z,16.37
2024-02-16T12:48:47.539Z,15.40
2024-02-16T12:51:18.044Z,17.07
2024-02-16T12:53:47.826Z,16.13
2024-02-16T12:56:16.542Z,16.67
2024-02-16T12:58:45.025Z,13.33
2024-02-16T13:01:20.417Z,11.67
2024-02-16T13:03:54.553Z,14.03
2024-02-16T13:06:26.742Z,15.37
2024-02-16T13:08:58.813Z,12.20
2024-02-16T13:11:27.348Z,13.13
2024-02-16T13:13:55.763Z,12.17
2024-02-16T13:16:26.313Z,12.53
2024-02-16T13:18:54.918Z,11.87
2024-02-16T13:21:23.862Z,13.10
2024-02-16T13:23:52.246Z,12.93
2024-02-16T13:26:21.952Z,13.73
2024-02-16T13:28:51.685Z,11.17
2024-02-16T13:31:20.087Z,12.57
2024-02-16T13:33:49.004Z,11.97
2024-02-16T13:36:17.677Z,9.90
2024-02-16T13:38:46.349Z,10.07
2024-02-16T13:41:17.694Z,10.17
2024-02-16T13:43:49.672Z,10.17
2024-02-16T13:46:18.760Z,9.70
2024-02-16T13:48:47.714Z,8.67
2024-02-16T13:51:16.431Z,9.17
2024-02-16T13:53:44.928Z,7.83
2024-02-16T13:56:13.422Z,7.50
2024-02-16T13:58:42.697Z,6.40
2024-02-16T14:01:12.722Z,8.57
2024-02-16T14:03:41.655Z,5.63
2024-02-16T14:06:11.987Z,5.67
2024-02-16T14:08:41.346Z,6.60
2024-02-16T14:11:11.339Z,6.03
2024-02-16T14:13:40.327Z,5.43
2024-02-16T14:16:11.452Z,6.63
2024-02-16T14:18:41.512Z,7.40
2024-02-16T14:21:11.446Z,6.20
2024-02-16T14:23:40.083Z,6.53
2024-02-16T14:26:08.793Z,7.13
2024-02-16T14:28:37.105Z,6.93
2024-02-16T14:31:07.458Z,7.23
2024-02-16T14:33:35.980Z,7.90
2024-02-16T14:36:10.286Z,7.43
2024-02-16T14:38:38.864Z,7.13
2024-02-16T14:41:07.186Z,7.37
2024-02-16T14:43:35.666Z,7.27
2024-02-16T14:46:05.514Z,8.07
2024-02-16T14:48:34.183Z,10.53
2024-02-16T14:51:07.870Z,12.30
2024-02-16T14:53:36.466Z,8.50
2024-02-16T14:56:05.555Z,8.50
2024-02-16T14:58:34.958Z,7.37
2024-02-16T15:01:03.913Z,8.83
2024-02-16T15:03:34.031Z,8.83
2024-02-16T15:06:02.882Z,9.40
2024-02-16T15:08:32.776Z,7.77
2024-02-16T15:11:03.142Z,8.07
2024-02-16T15:13:32.120Z,7.13
2024-02-16T15:16:01.078Z,7.87
2024-02-16T15:18:29.609Z,8.70
2024-02-16T15:20:58.359Z,8.47
2024-02-16T15:23:26.757Z,8.87
2024-02-16T15:25:56.590Z,9.27
2024-02-16T15:28:25.069Z,8.87
2024-02-16T15:30:53.513Z,8.10
2024-02-16T15:33:22.201Z,6.30
2024-02-16T15:35:50.618Z,8.00
2024-02-16T15:38:19.552Z,6.90
2024-02-16T15:40:48.364Z,8.07
2024-02-16T15:43:18.730Z,6.87
2024-02-16T15:45:51.136Z,6.37
2024-02-16T15:48:19.749Z,7.93
2024-02-16T15:50:50.940Z,7.83
2024-02-16T15:53:20.911Z,11.10
2024-02-16T15:55:49.667Z,7.37
2024-02-16T15:58:19.743Z,8.80
2024-02-16T16:00:48.910Z,9.37
2024-02-16T16:03:18.349Z,8.43
2024-02-16T16:05:46.696Z,8.57
2024-02-16T16:08:15.195Z,9.50
2024-02-16T16:10:43.568Z,11.53
2024-02-16T16:13:14.179Z,11.73
2024-02-16T16:15:46.586Z,8.83
2024-02-16T16:18:15.315Z,9.77
2024-02-16T16:20:45.051Z,10.77
2024-02-16T16:23:20.406Z,10.47
2024-02-16T16:25:49.368Z,11.87
2024-02-16T16:28:25.817Z,12.40
2024-02-16T16:30:55.607Z,9.70
2024-02-16T16:33:24.236Z,9.27
2024-02-16T16:35:53.910Z,11.97
2024-02-16T16:38:22.858Z,9.90
2024-02-16T16:40:51.165Z,10.37
2024-02-16T16:43:20.697Z,9.80
2024-02-16T16:45:49.594Z,8.53
2024-02-16T16:48:21.130Z,7.57
2024-02-16T16:50:49.654Z,7.67
2024-02-16T16:53:18.917Z,7.53
2024-02-16T16:55:47.761Z,8.17
2024-02-16T16:58:16.637Z,9.33
2024-02-16T17:00:45.071Z,7.17
2024-02-16T17:03:15.758Z,9.70
2024-02-16T17:05:46.962Z,9.13
2024-02-16T17:08:15.499Z,9.07
2024-02-16T17:10:44.206Z,9.30
2024-02-16T17:13:13.157Z,10.23
2024-02-16T17:15:41.995Z,10.83
2024-02-16T17:18:11.210Z,13.77
2024-02-16T17:20:42.069Z,11.10
2024-02-16T17:23:11.798Z,12.30
2024-02-16T17:25:40.325Z,11.40
2024-02-16T17:28:08.941Z,14.70
2024-02-16T17:30:38.421Z,16.10
2024-02-16T17:33:07.355Z,15.27
2024-02-16T17:35:35.829Z,15.80
2024-02-16T17:38:04.160Z,17.73
2024-02-16T17:40:35.187Z,18.60
2024-02-16T17:43:05.211Z,14.13
2024-02-16T17:45:34.012Z,18.93
2024-02-16T17:48:03.596Z,15.57
2024-02-16T17:50:33.868Z,16.97
2024-02-16T17:53:02.941Z,17.93
2024-02-16T17:55:31.200Z,15.23
2024-02-16T17:58:01.608Z,18.10
2024-02-16T18:00:30.060Z,19.27
2024-02-16T18:02:58.651Z,19.67
2024-02-16T18:05:27.025Z,19.63
2024-02-16T18:07:55.468Z,20.17
2024-02-16T18:10:23.929Z,18.80
2024-02-16T18:12:52.393Z,20.27
2024-02-16T18:15:23.316Z,19.57
2024-02-16T18:17:52.843Z,19.57
2024-02-16T18:20:22.141Z,22.80
2024-02-16T18:22:50.490Z,21.73
2024-02-16T18:25:19.322Z,19.73
2024-02-16T18:27:48.143Z,20.20
2024-02-16T18:30:16.953Z,21.20
2024-02-16T18:32:47.035Z,23.63
2024-02-16T18:35:16.189Z,21.13
2024-02-16T18:37:44.845Z,23.83
2024-02-16T18:40:14.098Z,24.57
2024-02-16T18:42:43.332Z,24.70
2024-02-16T18:45:12.377Z,23.27
2024-02-16T18:47:41.328Z,25.63
2024-02-16T18:50:12.358Z,24.77
2024-02-16T18:52:41.616Z,24.00
2024-02-16T18:55:11.128Z,24.83
2024-02-16T18:57:39.805Z,28.30
2024-02-16T19:00:14.898Z,27.83
2024-02-16T19:02:44.718Z,29.83
2024-02-16T19:05:14.469Z,30.50
2024-02-16T19:07:42.963Z,30.63
2024-02-16T19:10:12.955Z,35.47
2024-02-16T19:12:41.406Z,34.57
2024-02-16T19:15:12.279Z,33.87
2024-02-16T19:17:41.173Z,34.93
2024-02-16T19:20:11.305Z,33.57
2024-02-16T19:22:41.238Z,33.07
2024-02-16T19:25:11.200Z,36.70
2024-02-16T19:27:40.067Z,37.70
2024-02-16T19:30:11.099Z,35.17
2024-02-16T19:32:40.194Z,32.47
2024-02-16T19:35:12.170Z,40.57
2024-02-16T19:37:43.590Z,36.93
2024-02-16T19:40:14.077Z,31.77
2024-02-16T19:42:44.879Z,32.60
2024-02-16T19:45:15.108Z,35.87
2024-02-16T19:47:47.188Z,31.90
2024-02-16T19:50:17.389Z,30.27
2024-02-16T19:52:47.323Z,26.70
2024-02-16T19:55:16.461Z,26.27
2024-02-16T19:57:47.183Z,26.53
2024-02-16T20:00:18.531Z,25.07
2024-02-16T20:02:48.733Z,26.40
2024-02-16T20:05:24.217Z,27.87
2024-02-16T20:07:54.202Z,24.83
2024-02-16T20:10:22.631Z,20.50
2024-02-16T20:12:50.959Z,25.30
2024-02-16T20:15:20.369Z,22.67
2024-02-16T20:17:49.074Z,24.47
2024-02-16T20:20:23.422Z,22.77
2024-02-16T20:22:54.218Z,25.67
2024-02-16T20:25:23.327Z,25.53
2024-02-16T20:27:51.635Z,26.73
2024-02-16T20:30:23.214Z,25.43
2024-02-16T20:32:55.171Z,26.80
2024-02-16T20:35:23.974Z,27.53
2024-02-16T20:37:54.342Z,28.53
2024-02-16T20:40:23.752Z,26.60
2024-02-16T20:42:52.088Z,26.27
2024-02-16T20:45:23.775Z,25.77
2024-02-16T20:47:52.563Z,27.73
2024-02-16T20:50:23.123Z,26.33
2024-02-16T20:52:54.434Z,26.90
2024-02-16T20:55:22.926Z,25.37
2024-02-16T20:57:51.291Z,29.90
2024-02-16T21:00:24.789Z,27.57
2024-02-16T21:02:54.633Z,27.77
2024-02-16T21:05:23.680Z,35.17
2024-02-16T21:07:53.974Z,29.83
2024-02-16T21:10:22.394Z,37.97
2024-02-16T21:12:50.769Z,31.27
2024-02-16T21:15:19.663Z,35.63
2024-02-16T21:17:48.377Z,35.00
2024-02-16T21:20:17.083Z,30.13
2024-02-16T21:22:45.844Z,28.57
2024-02-16T21:25:15.942Z,28.87
2024-02-16T21:27:44.503Z,30.97
2024-02-16T21:30:14.204Z,29.07
2024-02-16T21:32:43.273Z,31.03
2024-02-16T21:35:14.133Z,29.50
2024-02-16T21:37:43.178Z,28.07
2024-02-16T21:40:15.709Z,30.43
2024-02-16T21:42:44.084Z,26.87
2024-02-16T21:45:12.956Z,34.70
2024-02-16T21:47:41.369Z,39.20
2024-02-16T21:50:11.415Z,28.57
2024-02-16T21:52:40.120Z,29.57
2024-02-16T21:55:11.572Z,29.30
2024-02-16T21:57:44.140Z,28.30
2024-02-16T22:00:13.867Z,28.90
2024-02-16T22:02:42.845Z,30.17
2024-02-16T22:05:11.379Z,33.10
2024-02-16T22:07:40.233Z,30.33
2024-02-16T22:10:10.829Z,28.77
2024-02-16T22:12:41.405Z,29.67
2024-02-16T22:15:10.715Z,30.47
2024-02-16T22:17:39.681Z,30.47
2024-02-16T22:20:09.819Z,29.87
2024-02-16T22:22:38.088Z,30.33
2024-02-16T22:25:07.519Z,27.80
2024-02-16T22:27:35.836Z,29.67
2024-02-16T22:30:07.222Z,26.23
2024-02-16T22:32:35.582Z,29.67
2024-02-16T22:35:06.475Z,31.90
2024-02-16T22:37:34.934Z,27.63
2024-02-16T22:40:06.081Z,29.97
2024-02-16T22:42:34.600Z,27.37
2024-02-16T22:45:03.344Z,27.60
2024-02-16T22:47:34.012Z,28.30
2024-02-16T22:50:02.830Z,27.53
2024-02-16T22:52:31.202Z,27.60
2024-02-16T22:54:59.906Z,29.53
2024-02-16T22:57:28.282Z,33.00
2024-02-16T22:59:56.552Z,34.97
2024-02-16T23:02:24.977Z,28.10
2024-02-16T23:04:56.202Z,29.73
2024-02-16T23:07:25.071Z,26.80
2024-02-16T23:09:53.643Z,27.43
2024-02-16T23:12:24.968Z,28.20
2024-02-16T23:14:58.500Z,28.53
2024-02-16T23:17:27.184Z,30.90
2024-02-16T23:19:56.862Z,26.73
2024-02-16T23:22:25.430Z,29.67
2024-02-16T23:24:53.887Z,27.80
2024-02-16T23:27:25.842Z,28.43
2024-02-16T23:29:54.393Z,24.73
2024-02-16T23:32:22.955Z,24.07
2024-02-16T23:34:51.434Z,26.30
2024-02-16T23:37:21.139Z,26.03
2024-02-16T23:39:49.506Z,26.27
2024-02-16T23:42:18.352Z,25.30
2024-02-16T23:44:47.047Z,25.37
2024-02-16T23:47:16.028Z,26.13
2024-02-16T23:49:46.027Z,26.97
2024-02-16T23:52:14.316Z,28.90
2024-02-16T23:54:44.509Z,26.70
2024-02-16T23:57:12.940Z,25.30
2024-02-16T23:59:41.278Z,26.53
